sensor_id;sensor_type;location;lat;lon;timestamp;P1;durP1;ratioP1;P2;durP2;ratioP2
69083;SDS011;56185;48.526;9.044;2023-04-24T00:00:30;2.60;;;1.05;;
69083;SDS011;56185;48.526;9.044;2023-04-24T00:02:55;1.75;;;0.90;;
69083;SDS011;56185;48.526;9.044;2023-04-24T00:05:21;1.93;;;1.03;;
69083;SDS011;56185;48.526;9.044;2023-04-24T00:07:46;3.15;;;1.00;;
69083;SDS011;56185;48.526;9.044;2023-04-24T00:10:11;2.17;;;1.00;;
69083;SDS011;56185;48.526;9.044;2023-04-24T00:12:37;2.35;;;0.90;;
69083;SDS011;56185;48.526;9.044;2023-04-24T00:15:03;2.67;;;1.00;;
69083;SDS011;56185;48.526;9.044;2023-04-24T00:17:29;1.67;;;1.02;;
69083;SDS011;56185;48.526;9.044;2023-04-24T00:19:54;1.73;;;1.00;;
69083;SDS011;56185;48.526;9.044;2023-04-24T00:22:20;2.00;;;0.83;;
69083;SDS011;56185;48.526;9.044;2023-04-24T00:24:45;2.22;;;0.80;;
69083;SDS011;56185;48.526;9.044;2023-04-24T00:27:10;2.05;;;1.15;;
69083;SDS011;56185;48.526;9.044;2023-04-24T00:29:35;1.43;;;0.90;;
69083;SDS011;56185;48.526;9.044;2023-04-24T00:32:01;1.63;;;0.83;;
69083;SDS011;56185;48.526;9.044;2023-04-24T00:34:26;1.47;;;0.90;;
69083;SDS011;56185;48.526;9.044;2023-04-24T00:36:51;1.63;;;0.73;;
69083;SDS011;56185;48.526;9.044;2023-04-24T00:39:16;1.63;;;1.00;;
69083;SDS011;56185;48.526;9.044;2023-04-24T00:41:42;1.95;;;1.00;;
69083;SDS011;56185;48.526;9.044;2023-04-24T00:44:07;2.58;;;1.10;;
69083;SDS011;56185;48.526;9.044;2023-04-24T00:46:33;1.63;;;0.90;;
69083;SDS011;56185;48.526;9.044;2023-04-24T00:48:59;2.17;;;1.00;;
69083;SDS011;56185;48.526;9.044;2023-04-24T00:51:24;2.95;;;1.80;;
69083;SDS011;56185;48.526;9.044;2023-04-24T00:53:49;2.67;;;1.00;;
69083;SDS011;56185;48.526;9.044;2023-04-24T00:56:15;2.33;;;1.00;;
69083;SDS011;56185;48.526;9.044;2023-04-24T00:58:40;1.73;;;1.15;;
69083;SDS011;56185;48.526;9.044;2023-04-24T01:01:06;1.75;;;0.90;;
69083;SDS011;56185;48.526;9.044;2023-04-24T01:03:32;2.08;;;1.13;;
69083;SDS011;56185;48.526;9.044;2023-04-24T01:05:58;3.75;;;1.02;;
69083;SDS011;56185;48.526;9.044;2023-04-24T01:08:24;1.30;;;1.00;;
69083;SDS011;56185;48.526;9.044;2023-04-24T01:10:54;2.63;;;1.10;;
69083;SDS011;56185;48.526;9.044;2023-04-24T01:13:21;6.15;;;1.27;;
69083;SDS011;56185;48.526;9.044;2023-04-24T01:15:47;3.97;;;1.23;;
69083;SDS011;56185;48.526;9.044;2023-04-24T01:18:13;2.65;;;1.00;;
69083;SDS011;56185;48.526;9.044;2023-04-24T01:20:42;2.03;;;0.90;;
69083;SDS011;56185;48.526;9.044;2023-04-24T01:23:08;1.77;;;1.02;;
69083;SDS011;56185;48.526;9.044;2023-04-24T01:25:33;2.47;;;1.00;;
69083;SDS011;56185;48.526;9.044;2023-04-24T01:27:59;2.50;;;0.80;;
69083;SDS011;56185;48.526;9.044;2023-04-24T01:30:25;2.15;;;0.90;;
69083;SDS011;56185;48.526;9.044;2023-04-24T01:32:52;2.17;;;0.90;;
69083;SDS011;56185;48.526;9.044;2023-04-24T01:35:17;2.00;;;0.85;;
69083;SDS011;56185;48.526;9.044;2023-04-24T01:37:43;1.30;;;0.80;;
69083;SDS011;56185;48.526;9.044;2023-04-24T01:40:08;1.63;;;0.80;;
69083;SDS011;56185;48.526;9.044;2023-04-24T01:42:34;1.67;;;0.93;;
69083;SDS011;56185;48.526;9.044;2023-04-24T01:45:00;2.30;;;1.08;;
69083;SDS011;56185;48.526;9.044;2023-04-24T01:47:27;1.40;;;1.00;;
69083;SDS011;56185;48.526;9.044;2023-04-24T01:49:53;1.80;;;0.82;;
69083;SDS011;56185;48.526;9.044;2023-04-24T01:52:18;2.27;;;1.10;;
69083;SDS011;56185;48.526;9.044;2023-04-24T01:54:43;2.85;;;0.95;;
69083;SDS011;56185;48.526;9.044;2023-04-24T01:57:09;2.45;;;1.10;;
69083;SDS011;56185;48.526;9.044;2023-04-24T01:59:34;1.15;;;0.98;;
69083;SDS011;56185;48.526;9.044;2023-04-24T02:01:59;1.30;;;0.90;;
69083;SDS011;56185;48.526;9.044;2023-04-24T02:04:25;1.60;;;1.00;;
69083;SDS011;56185;48.526;9.044;2023-04-24T02:06:50;2.37;;;0.90;;
69083;SDS011;56185;48.526;9.044;2023-04-24T02:09:15;1.47;;;1.00;;
69083;SDS011;56185;48.526;9.044;2023-04-24T02:11:41;2.20;;;1.00;;
69083;SDS011;56185;48.526;9.044;2023-04-24T02:14:06;2.38;;;1.10;;
69083;SDS011;56185;48.526;9.044;2023-04-24T02:16:31;1.55;;;1.00;;
69083;SDS011;56185;48.526;9.044;2023-04-24T02:18:56;1.67;;;0.88;;
69083;SDS011;56185;48.526;9.044;2023-04-24T02:21:22;1.33;;;0.90;;
69083;SDS011;56185;48.526;9.044;2023-04-24T02:23:47;1.50;;;1.10;;
69083;SDS011;56185;48.526;9.044;2023-04-24T02:26:12;4.03;;;1.40;;
69083;SDS011;56185;48.526;9.044;2023-04-24T02:28:40;1.60;;;1.10;;
69083;SDS011;56185;48.526;9.044;2023-04-24T02:31:05;1.40;;;1.02;;
69083;SDS011;56185;48.526;9.044;2023-04-24T02:33:30;2.85;;;1.00;;
69083;SDS011;56185;48.526;9.044;2023-04-24T02:35:56;1.80;;;1.10;;
69083;SDS011;56185;48.526;9.044;2023-04-24T02:38:21;2.40;;;0.90;;
69083;SDS011;56185;48.526;9.044;2023-04-24T02:40:46;3.93;;;1.20;;
69083;SDS011;56185;48.526;9.044;2023-04-24T02:43:11;2.03;;;1.10;;
69083;SDS011;56185;48.526;9.044;2023-04-24T02:45:37;2.73;;;0.90;;
69083;SDS011;56185;48.526;9.044;2023-04-24T02:48:02;1.92;;;0.90;;
69083;SDS011;56185;48.526;9.044;2023-04-24T02:50:27;1.45;;;0.80;;
69083;SDS011;56185;48.526;9.044;2023-04-24T02:52:52;1.17;;;0.83;;
69083;SDS011;56185;48.526;9.044;2023-04-24T02:55:18;2.07;;;0.90;;
69083;SDS011;56185;48.526;9.044;2023-04-24T02:57:43;1.50;;;0.90;;
69083;SDS011;56185;48.526;9.044;2023-04-24T03:00:08;2.28;;;0.93;;
69083;SDS011;56185;48.526;9.044;2023-04-24T03:02:34;3.15;;;0.90;;
69083;SDS011;56185;48.526;9.044;2023-04-24T03:04:59;2.50;;;1.10;;
69083;SDS011;56185;48.526;9.044;2023-04-24T03:07:25;3.70;;;1.07;;
69083;SDS011;56185;48.526;9.044;2023-04-24T03:09:50;2.08;;;1.00;;
69083;SDS011;56185;48.526;9.044;2023-04-24T03:12:15;2.93;;;1.00;;
69083;SDS011;56185;48.526;9.044;2023-04-24T03:14:40;3.25;;;1.08;;
69083;SDS011;56185;48.526;9.044;2023-04-24T03:17:06;2.13;;;1.20;;
69083;SDS011;56185;48.526;9.044;2023-04-24T03:19:31;2.27;;;1.10;;
69083;SDS011;56185;48.526;9.044;2023-04-24T03:21:56;2.85;;;0.90;;
69083;SDS011;56185;48.526;9.044;2023-04-24T03:24:21;2.10;;;0.80;;
69083;SDS011;56185;48.526;9.044;2023-04-24T03:26:47;2.13;;;1.00;;
69083;SDS011;56185;48.526;9.044;2023-04-24T03:29:12;1.77;;;0.87;;
69083;SDS011;56185;48.526;9.044;2023-04-24T03:31:37;1.65;;;1.00;;
69083;SDS011;56185;48.526;9.044;2023-04-24T03:34:02;1.23;;;0.90;;
69083;SDS011;56185;48.526;9.044;2023-04-24T03:36:28;2.72;;;0.90;;
69083;SDS011;56185;48.526;9.044;2023-04-24T03:38:53;1.30;;;0.93;;
69083;SDS011;56185;48.526;9.044;2023-04-24T03:41:18;1.30;;;0.87;;
69083;SDS011;56185;48.526;9.044;2023-04-24T03:43:43;1.92;;;0.90;;
69083;SDS011;56185;48.526;9.044;2023-04-24T03:46:09;1.50;;;0.80;;
69083;SDS011;56185;48.526;9.044;2023-04-24T03:48:34;2.08;;;0.90;;
69083;SDS011;56185;48.526;9.044;2023-04-24T03:51:00;2.17;;;0.80;;
69083;SDS011;56185;48.526;9.044;2023-04-24T03:53:25;2.10;;;0.87;;
69083;SDS011;56185;48.526;9.044;2023-04-24T03:55:50;2.13;;;0.90;;
69083;SDS011;56185;48.526;9.044;2023-04-24T03:58:15;1.90;;;0.80;;
69083;SDS011;56185;48.526;9.044;2023-04-24T04:00:41;3.27;;;0.80;;
69083;SDS011;56185;48.526;9.044;2023-04-24T04:03:06;1.52;;;0.80;;
69083;SDS011;56185;48.526;9.044;2023-04-24T04:05:31;1.65;;;0.80;;
69083;SDS011;56185;48.526;9.044;2023-04-24T04:07:57;1.10;;;0.80;;
69083;SDS011;56185;48.526;9.044;2023-04-24T04:10:22;1.30;;;0.77;;
69083;SDS011;56185;48.526;9.044;2023-04-24T04:12:47;1.60;;;0.82;;
69083;SDS011;56185;48.526;9.044;2023-04-24T04:15:13;1.37;;;0.70;;
69083;SDS011;56185;48.526;9.044;2023-04-24T04:17:38;1.65;;;0.82;;
69083;SDS011;56185;48.526;9.044;2023-04-24T04:20:04;2.47;;;0.98;;
69083;SDS011;56185;48.526;9.044;2023-04-24T04:22:29;1.33;;;0.70;;
69083;SDS011;56185;48.526;9.044;2023-04-24T04:24:55;1.93;;;0.77;;
69083;SDS011;56185;48.526;9.044;2023-04-24T04:27:20;1.60;;;1.00;;
69083;SDS011;56185;48.526;9.044;2023-04-24T04:29:45;2.17;;;0.90;;
69083;SDS011;56185;48.526;9.044;2023-04-24T04:32:10;2.80;;;0.80;;
69083;SDS011;56185;48.526;9.044;2023-04-24T04:34:36;2.50;;;0.93;;
69083;SDS011;56185;48.526;9.044;2023-04-24T04:37:01;2.37;;;1.00;;
69083;SDS011;56185;48.526;9.044;2023-04-24T04:39:26;3.00;;;1.13;;
69083;SDS011;56185;48.526;9.044;2023-04-24T04:41:52;2.20;;;0.90;;
69083;SDS011;56185;48.526;9.044;2023-04-24T04:44:17;3.33;;;1.10;;
69083;SDS011;56185;48.526;9.044;2023-04-24T04:46:42;1.70;;;0.90;;
69083;SDS011;56185;48.526;9.044;2023-04-24T04:49:08;1.30;;;0.90;;
69083;SDS011;56185;48.526;9.044;2023-04-24T04:51:33;1.92;;;0.90;;
69083;SDS011;56185;48.526;9.044;2023-04-24T04:53:59;1.52;;;0.93;;
69083;SDS011;56185;48.526;9.044;2023-04-24T04:56:24;1.55;;;0.95;;
69083;SDS011;56185;48.526;9.044;2023-04-24T04:58:49;2.25;;;0.95;;
69083;SDS011;56185;48.526;9.044;2023-04-24T05:01:15;2.08;;;1.15;;
69083;SDS011;56185;48.526;9.044;2023-04-24T05:03:40;1.45;;;0.82;;
69083;SDS011;56185;48.526;9.044;2023-04-24T05:06:05;2.07;;;1.10;;
69083;SDS011;56185;48.526;9.044;2023-04-24T05:08:31;1.55;;;0.90;;
69083;SDS011;56185;48.526;9.044;2023-04-24T05:10:56;3.08;;;1.20;;
69083;SDS011;56185;48.526;9.044;2023-04-24T05:13:21;2.13;;;0.90;;
69083;SDS011;56185;48.526;9.044;2023-04-24T05:15:47;2.25;;;1.10;;
69083;SDS011;56185;48.526;9.044;2023-04-24T05:18:12;2.73;;;1.30;;
69083;SDS011;56185;48.526;9.044;2023-04-24T05:20:38;2.97;;;1.80;;
69083;SDS011;56185;48.526;9.044;2023-04-24T05:23:03;2.53;;;1.50;;
69083;SDS011;56185;48.526;9.044;2023-04-24T05:25:31;3.97;;;1.92;;
69083;SDS011;56185;48.526;9.044;2023-04-24T05:27:56;1.63;;;1.45;;
69083;SDS011;56185;48.526;9.044;2023-04-24T05:30:21;2.33;;;1.33;;
69083;SDS011;56185;48.526;9.044;2023-04-24T05:32:47;4.32;;;1.42;;
69083;SDS011;56185;48.526;9.044;2023-04-24T05:35:12;2.53;;;1.37;;
69083;SDS011;56185;48.526;9.044;2023-04-24T05:37:37;2.43;;;1.40;;
69083;SDS011;56185;48.526;9.044;2023-04-24T05:40:03;2.07;;;1.47;;
69083;SDS011;56185;48.526;9.044;2023-04-24T05:42:29;3.25;;;1.58;;
69083;SDS011;56185;48.526;9.044;2023-04-24T05:44:54;2.92;;;1.40;;
69083;SDS011;56185;48.526;9.044;2023-04-24T05:47:19;2.53;;;1.57;;
69083;SDS011;56185;48.526;9.044;2023-04-24T05:49:44;2.03;;;1.57;;
69083;SDS011;56185;48.526;9.044;2023-04-24T05:52:10;4.03;;;2.60;;
69083;SDS011;56185;48.526;9.044;2023-04-24T05:54:35;4.35;;;2.13;;
69083;SDS011;56185;48.526;9.044;2023-04-24T05:57:00;7.23;;;3.70;;
69083;SDS011;56185;48.526;9.044;2023-04-24T05:59:25;5.30;;;2.83;;
69083;SDS011;56185;48.526;9.044;2023-04-24T06:01:51;4.13;;;2.22;;
69083;SDS011;56185;48.526;9.044;2023-04-24T06:04:16;2.63;;;1.50;;
69083;SDS011;56185;48.526;9.044;2023-04-24T06:06:41;3.60;;;1.60;;
69083;SDS011;56185;48.526;9.044;2023-04-24T06:09:06;2.83;;;1.80;;
69083;SDS011;56185;48.526;9.044;2023-04-24T06:11:32;2.03;;;1.50;;
69083;SDS011;56185;48.526;9.044;2023-04-24T06:13:57;3.67;;;2.20;;
69083;SDS011;56185;48.526;9.044;2023-04-24T06:16:22;5.37;;;2.13;;
69083;SDS011;56185;48.526;9.044;2023-04-24T06:18:47;2.43;;;1.80;;
69083;SDS011;56185;48.526;9.044;2023-04-24T06:21:13;4.18;;;1.80;;
69083;SDS011;56185;48.526;9.044;2023-04-24T06:23:38;4.57;;;3.95;;
69083;SDS011;56185;48.526;9.044;2023-04-24T06:26:03;4.10;;;1.85;;
69083;SDS011;56185;48.526;9.044;2023-04-24T06:28:29;2.78;;;2.00;;
69083;SDS011;56185;48.526;9.044;2023-04-24T06:30:54;2.70;;;2.00;;
69083;SDS011;56185;48.526;9.044;2023-04-24T06:33:19;2.75;;;1.80;;
69083;SDS011;56185;48.526;9.044;2023-04-24T06:35:44;3.80;;;1.95;;
69083;SDS011;56185;48.526;9.044;2023-04-24T06:38:10;4.90;;;1.90;;
69083;SDS011;56185;48.526;9.044;2023-04-24T06:40:35;2.50;;;1.85;;
69083;SDS011;56185;48.526;9.044;2023-04-24T06:43:00;3.30;;;2.20;;
69083;SDS011;56185;48.526;9.044;2023-04-24T06:45:25;4.17;;;2.20;;
69083;SDS011;56185;48.526;9.044;2023-04-24T06:47:51;3.38;;;1.80;;
69083;SDS011;56185;48.526;9.044;2023-04-24T06:50:16;2.22;;;1.65;;
69083;SDS011;56185;48.526;9.044;2023-04-24T06:52:41;3.88;;;2.00;;
69083;SDS011;56185;48.526;9.044;2023-04-24T06:55:07;3.58;;;1.90;;
69083;SDS011;56185;48.526;9.044;2023-04-24T06:57:32;2.65;;;1.98;;
69083;SDS011;56185;48.526;9.044;2023-04-24T06:59:58;6.93;;;2.03;;
69083;SDS011;56185;48.526;9.044;2023-04-24T07:02:24;2.25;;;1.85;;
69083;SDS011;56185;48.526;9.044;2023-04-24T07:04:49;2.35;;;1.75;;
69083;SDS011;56185;48.526;9.044;2023-04-24T07:07:15;2.37;;;1.60;;
69083;SDS011;56185;48.526;9.044;2023-04-24T07:09:40;3.40;;;1.83;;
69083;SDS011;56185;48.526;9.044;2023-04-24T07:12:05;2.90;;;1.92;;
69083;SDS011;56185;48.526;9.044;2023-04-24T07:14:30;4.50;;;1.70;;
69083;SDS011;56185;48.526;9.044;2023-04-24T07:16:56;3.08;;;2.25;;
69083;SDS011;56185;48.526;9.044;2023-04-24T07:19:21;2.67;;;1.70;;
69083;SDS011;56185;48.526;9.044;2023-04-24T07:21:46;3.57;;;1.60;;
69083;SDS011;56185;48.526;9.044;2023-04-24T07:24:11;2.73;;;1.60;;
69083;SDS011;56185;48.526;9.044;2023-04-24T07:26:37;1.93;;;1.57;;
69083;SDS011;56185;48.526;9.044;2023-04-24T07:29:02;2.28;;;1.60;;
69083;SDS011;56185;48.526;9.044;2023-04-24T07:31:28;3.25;;;1.70;;
69083;SDS011;56185;48.526;9.044;2023-04-24T07:33:53;2.37;;;1.37;;
69083;SDS011;56185;48.526;9.044;2023-04-24T07:36:18;4.07;;;1.70;;
69083;SDS011;56185;48.526;9.044;2023-04-24T07:38:43;2.73;;;1.50;;
69083;SDS011;56185;48.526;9.044;2023-04-24T07:41:12;2.60;;;1.40;;
69083;SDS011;56185;48.526;9.044;2023-04-24T07:43:38;3.65;;;1.50;;
69083;SDS011;56185;48.526;9.044;2023-04-24T07:46:03;2.27;;;1.60;;
69083;SDS011;56185;48.526;9.044;2023-04-24T07:48:28;4.70;;;1.67;;
69083;SDS011;56185;48.526;9.044;2023-04-24T07:50:54;1.80;;;1.40;;
69083;SDS011;56185;48.526;9.044;2023-04-24T07:53:19;2.47;;;1.50;;
69083;SDS011;56185;48.526;9.044;2023-04-24T07:55:44;3.63;;;1.50;;
69083;SDS011;56185;48.526;9.044;2023-04-24T07:58:09;2.77;;;1.60;;
69083;SDS011;56185;48.526;9.044;2023-04-24T08:00:35;2.65;;;1.30;;
69083;SDS011;56185;48.526;9.044;2023-04-24T08:03:00;2.53;;;1.50;;
69083;SDS011;56185;48.526;9.044;2023-04-24T08:05:26;2.25;;;1.50;;
69083;SDS011;56185;48.526;9.044;2023-04-24T08:07:51;2.80;;;1.42;;
69083;SDS011;56185;48.526;9.044;2023-04-24T08:10:16;1.95;;;1.42;;
69083;SDS011;56185;48.526;9.044;2023-04-24T08:12:41;1.95;;;1.40;;
69083;SDS011;56185;48.526;9.044;2023-04-24T08:15:07;2.30;;;1.40;;
69083;SDS011;56185;48.526;9.044;2023-04-24T08:17:34;2.83;;;1.30;;
69083;SDS011;56185;48.526;9.044;2023-04-24T08:19:59;2.05;;;1.63;;
69083;SDS011;56185;48.526;9.044;2023-04-24T08:22:25;2.27;;;1.63;;
69083;SDS011;56185;48.526;9.044;2023-04-24T08:24:51;2.27;;;1.50;;
69083;SDS011;56185;48.526;9.044;2023-04-24T08:27:16;2.15;;;1.65;;
69083;SDS011;56185;48.526;9.044;2023-04-24T08:29:41;1.90;;;1.60;;
69083;SDS011;56185;48.526;9.044;2023-04-24T08:32:13;2.10;;;1.43;;
69083;SDS011;56185;48.526;9.044;2023-04-24T08:34:38;3.67;;;1.70;;
69083;SDS011;56185;48.526;9.044;2023-04-24T08:37:03;2.30;;;1.43;;
69083;SDS011;56185;48.526;9.044;2023-04-24T08:39:28;4.15;;;1.60;;
69083;SDS011;56185;48.526;9.044;2023-04-24T08:41:54;1.60;;;1.30;;
69083;SDS011;56185;48.526;9.044;2023-04-24T08:44:20;2.78;;;1.42;;
69083;SDS011;56185;48.526;9.044;2023-04-24T08:46:46;3.72;;;1.50;;
69083;SDS011;56185;48.526;9.044;2023-04-24T08:49:13;3.65;;;1.42;;
69083;SDS011;56185;48.526;9.044;2023-04-24T08:51:39;3.72;;;1.58;;
69083;SDS011;56185;48.526;9.044;2023-04-24T08:54:04;3.08;;;1.52;;
69083;SDS011;56185;48.526;9.044;2023-04-24T08:56:30;3.38;;;1.55;;
69083;SDS011;56185;48.526;9.044;2023-04-24T08:58:58;1.50;;;1.10;;
69083;SDS011;56185;48.526;9.044;2023-04-24T09:01:24;3.92;;;1.50;;
69083;SDS011;56185;48.526;9.044;2023-04-24T09:03:50;1.80;;;1.30;;
69083;SDS011;56185;48.526;9.044;2023-04-24T09:06:17;3.10;;;1.52;;
69083;SDS011;56185;48.526;9.044;2023-04-24T09:08:44;2.22;;;1.17;;
69083;SDS011;56185;48.526;9.044;2023-04-24T09:11:10;2.17;;;1.40;;
69083;SDS011;56185;48.526;9.044;2023-04-24T09:13:36;3.17;;;1.50;;
69083;SDS011;56185;48.526;9.044;2023-04-24T09:16:02;2.63;;;1.48;;
69083;SDS011;56185;48.526;9.044;2023-04-24T09:18:28;3.15;;;1.42;;
69083;SDS011;56185;48.526;9.044;2023-04-24T09:20:57;2.33;;;1.50;;
69083;SDS011;56185;48.526;9.044;2023-04-24T09:23:23;2.47;;;1.42;;
69083;SDS011;56185;48.526;9.044;2023-04-24T09:25:53;2.88;;;1.50;;
69083;SDS011;56185;48.526;9.044;2023-04-24T09:28:22;4.00;;;1.48;;
69083;SDS011;56185;48.526;9.044;2023-04-24T09:31:01;2.45;;;1.40;;
69083;SDS011;56185;48.526;9.044;2023-04-24T09:33:40;2.55;;;1.33;;
69083;SDS011;56185;48.526;9.044;2023-04-24T09:36:18;2.15;;;1.23;;
69083;SDS011;56185;48.526;9.044;2023-04-24T09:38:44;3.20;;;1.40;;
69083;SDS011;56185;48.526;9.044;2023-04-24T09:41:10;2.28;;;1.20;;
69083;SDS011;56185;48.526;9.044;2023-04-24T09:43:38;2.97;;;1.50;;
69083;SDS011;56185;48.526;9.044;2023-04-24T09:46:05;3.72;;;1.60;;
69083;SDS011;56185;48.526;9.044;2023-04-24T09:48:33;3.20;;;1.40;;
69083;SDS011;56185;48.526;9.044;2023-04-24T09:51:00;2.03;;;1.30;;
69083;SDS011;56185;48.526;9.044;2023-04-24T09:53:27;3.08;;;1.45;;
69083;SDS011;56185;48.526;9.044;2023-04-24T09:55:52;2.45;;;1.33;;
69083;SDS011;56185;48.526;9.044;2023-04-24T09:58:18;2.42;;;1.30;;
69083;SDS011;56185;48.526;9.044;2023-04-24T10:00:49;2.05;;;1.33;;
69083;SDS011;56185;48.526;9.044;2023-04-24T10:03:14;3.83;;;1.60;;
69083;SDS011;56185;48.526;9.044;2023-04-24T10:05:42;2.88;;;1.40;;
69083;SDS011;56185;48.526;9.044;2023-04-24T10:08:11;2.22;;;1.17;;
69083;SDS011;56185;48.526;9.044;2023-04-24T10:10:41;2.63;;;1.20;;
69083;SDS011;56185;48.526;9.044;2023-04-24T10:13:08;3.10;;;1.38;;
69083;SDS011;56185;48.526;9.044;2023-04-24T10:15:34;4.45;;;1.38;;
69083;SDS011;56185;48.526;9.044;2023-04-24T10:18:00;2.60;;;1.33;;
69083;SDS011;56185;48.526;9.044;2023-04-24T10:20:27;3.58;;;1.20;;
69083;SDS011;56185;48.526;9.044;2023-04-24T10:22:54;2.95;;;1.40;;
69083;SDS011;56185;48.526;9.044;2023-04-24T10:25:20;2.05;;;1.05;;
69083;SDS011;56185;48.526;9.044;2023-04-24T10:27:47;2.33;;;1.30;;
69083;SDS011;56185;48.526;9.044;2023-04-24T10:30:13;1.98;;;1.10;;
69083;SDS011;56185;48.526;9.044;2023-04-24T10:32:39;2.28;;;1.20;;
69083;SDS011;56185;48.526;9.044;2023-04-24T10:35:08;1.90;;;1.20;;
69083;SDS011;56185;48.526;9.044;2023-04-24T10:37:46;2.42;;;1.08;;
69083;SDS011;56185;48.526;9.044;2023-04-24T10:40:17;1.77;;;1.20;;
69083;SDS011;56185;48.526;9.044;2023-04-24T10:42:43;2.17;;;1.55;;
69083;SDS011;56185;48.526;9.044;2023-04-24T10:45:16;2.80;;;1.20;;
69083;SDS011;56185;48.526;9.044;2023-04-24T10:47:58;3.17;;;1.33;;
69083;SDS011;56185;48.526;9.044;2023-04-24T10:50:26;2.38;;;1.25;;
69083;SDS011;56185;48.526;9.044;2023-04-24T10:52:52;2.40;;;1.23;;
69083;SDS011;56185;48.526;9.044;2023-04-24T10:58:13;2.30;;;1.30;;
69083;SDS011;56185;48.526;9.044;2023-04-24T11:00:39;2.28;;;1.10;;
69083;SDS011;56185;48.526;9.044;2023-04-24T11:03:06;2.53;;;1.25;;
69083;SDS011;56185;48.526;9.044;2023-04-24T11:08:25;1.45;;;1.15;;
69083;SDS011;56185;48.526;9.044;2023-04-24T11:10:58;1.88;;;1.08;;
69083;SDS011;56185;48.526;9.044;2023-04-24T11:13:24;1.95;;;1.30;;
69083;SDS011;56185;48.526;9.044;2023-04-24T11:18:39;3.65;;;1.30;;
69083;SDS011;56185;48.526;9.044;2023-04-24T11:21:10;4.55;;;1.42;;
69083;SDS011;56185;48.526;9.044;2023-04-24T11:23:38;3.92;;;1.33;;
69083;SDS011;56185;48.526;9.044;2023-04-24T11:26:17;2.25;;;1.20;;
69083;SDS011;56185;48.526;9.044;2023-04-24T11:28:44;2.63;;;1.20;;
69083;SDS011;56185;48.526;9.044;2023-04-24T11:34:06;1.50;;;1.20;;
69083;SDS011;56185;48.526;9.044;2023-04-24T11:36:32;2.20;;;1.10;;
69083;SDS011;56185;48.526;9.044;2023-04-24T11:38:59;1.27;;;0.93;;
69083;SDS011;56185;48.526;9.044;2023-04-24T11:41:24;1.90;;;1.13;;
69083;SDS011;56185;48.526;9.044;2023-04-24T11:43:51;1.90;;;1.30;;
69083;SDS011;56185;48.526;9.044;2023-04-24T11:46:20;1.90;;;1.20;;
69083;SDS011;56185;48.526;9.044;2023-04-24T11:48:45;1.45;;;1.08;;
69083;SDS011;56185;48.526;9.044;2023-04-24T11:51:12;1.40;;;1.00;;
69083;SDS011;56185;48.526;9.044;2023-04-24T11:53:37;2.15;;;1.00;;
69083;SDS011;56185;48.526;9.044;2023-04-24T11:56:03;2.47;;;1.23;;
69083;SDS011;56185;48.526;9.044;2023-04-24T11:58:34;2.40;;;1.20;;
69083;SDS011;56185;48.526;9.044;2023-04-24T12:00:59;2.13;;;1.25;;
69083;SDS011;56185;48.526;9.044;2023-04-24T12:03:25;2.37;;;1.20;;
69083;SDS011;56185;48.526;9.044;2023-04-24T12:05:50;2.60;;;1.13;;
69083;SDS011;56185;48.526;9.044;2023-04-24T12:08:28;2.83;;;1.25;;
69083;SDS011;56185;48.526;9.044;2023-04-24T12:10:53;1.73;;;1.00;;
69083;SDS011;56185;48.526;9.044;2023-04-24T12:13:21;1.60;;;1.05;;
69083;SDS011;56185;48.526;9.044;2023-04-24T12:15:46;3.03;;;1.17;;
69083;SDS011;56185;48.526;9.044;2023-04-24T12:18:12;1.70;;;1.00;;
69083;SDS011;56185;48.526;9.044;2023-04-24T12:20:37;1.92;;;0.95;;
69083;SDS011;56185;48.526;9.044;2023-04-24T12:23:03;1.33;;;0.90;;
69083;SDS011;56185;48.526;9.044;2023-04-24T12:25:35;1.15;;;0.90;;
69083;SDS011;56185;48.526;9.044;2023-04-24T12:30:29;2.22;;;1.10;;
69083;SDS011;56185;48.526;9.044;2023-04-24T12:32:59;2.30;;;1.10;;
69083;SDS011;56185;48.526;9.044;2023-04-24T12:35:25;1.63;;;1.20;;
69083;SDS011;56185;48.526;9.044;2023-04-24T12:37:52;2.42;;;1.10;;
69083;SDS011;56185;48.526;9.044;2023-04-24T12:40:18;2.47;;;1.20;;
69083;SDS011;56185;48.526;9.044;2023-04-24T12:42:46;3.65;;;1.30;;
69083;SDS011;56185;48.526;9.044;2023-04-24T12:45:13;2.67;;;1.48;;
69083;SDS011;56185;48.526;9.044;2023-04-24T12:47:40;1.55;;;1.25;;
69083;SDS011;56185;48.526;9.044;2023-04-24T12:50:09;3.97;;;1.35;;
69083;SDS011;56185;48.526;9.044;2023-04-24T12:52:36;2.83;;;1.42;;
69083;SDS011;56185;48.526;9.044;2023-04-24T12:55:02;2.15;;;1.25;;
69083;SDS011;56185;48.526;9.044;2023-04-24T12:57:29;1.80;;;1.20;;
69083;SDS011;56185;48.526;9.044;2023-04-24T12:59:55;1.95;;;1.27;;
69083;SDS011;56185;48.526;9.044;2023-04-24T13:02:24;1.48;;;1.08;;
69083;SDS011;56185;48.526;9.044;2023-04-24T13:04:52;4.15;;;1.15;;
69083;SDS011;56185;48.526;9.044;2023-04-24T13:07:18;2.38;;;1.30;;
69083;SDS011;56185;48.526;9.044;2023-04-24T13:09:43;5.60;;;1.70;;
69083;SDS011;56185;48.526;9.044;2023-04-24T13:12:09;1.63;;;1.30;;
69083;SDS011;56185;48.526;9.044;2023-04-24T13:14:35;2.08;;;1.30;;
69083;SDS011;56185;48.526;9.044;2023-04-24T13:17:01;4.72;;;1.70;;
69083;SDS011;56185;48.526;9.044;2023-04-24T13:19:27;2.20;;;1.20;;
69083;SDS011;56185;48.526;9.044;2023-04-24T13:21:53;1.60;;;1.30;;
69083;SDS011;56185;48.526;9.044;2023-04-24T13:24:19;1.95;;;1.33;;
69083;SDS011;56185;48.526;9.044;2023-04-24T13:26:44;2.50;;;1.33;;
69083;SDS011;56185;48.526;9.044;2023-04-24T13:29:10;1.83;;;1.20;;
69083;SDS011;56185;48.526;9.044;2023-04-24T13:31:35;1.73;;;1.30;;
69083;SDS011;56185;48.526;9.044;2023-04-24T13:34:01;1.92;;;1.60;;
69083;SDS011;56185;48.526;9.044;2023-04-24T13:36:27;2.45;;;1.27;;
69083;SDS011;56185;48.526;9.044;2023-04-24T13:38:53;5.75;;;1.45;;
69083;SDS011;56185;48.526;9.044;2023-04-24T13:41:18;1.93;;;1.20;;
69083;SDS011;56185;48.526;9.044;2023-04-24T13:43:43;2.53;;;1.20;;
69083;SDS011;56185;48.526;9.044;2023-04-24T13:46:08;2.50;;;1.30;;
69083;SDS011;56185;48.526;9.044;2023-04-24T13:48:34;2.10;;;1.40;;
69083;SDS011;56185;48.526;9.044;2023-04-24T13:50:59;2.33;;;1.30;;
69083;SDS011;56185;48.526;9.044;2023-04-24T13:53:25;1.80;;;1.13;;
69083;SDS011;56185;48.526;9.044;2023-04-24T13:55:50;2.63;;;1.30;;
69083;SDS011;56185;48.526;9.044;2023-04-24T13:58:15;1.63;;;1.30;;
69083;SDS011;56185;48.526;9.044;2023-04-24T14:00:40;2.40;;;1.20;;
69083;SDS011;56185;48.526;9.044;2023-04-24T14:03:06;2.42;;;1.60;;
69083;SDS011;56185;48.526;9.044;2023-04-24T14:05:31;1.57;;;1.20;;
69083;SDS011;56185;48.526;9.044;2023-04-24T14:07:56;5.00;;;1.30;;
69083;SDS011;56185;48.526;9.044;2023-04-24T14:10:21;1.92;;;1.35;;
69083;SDS011;56185;48.526;9.044;2023-04-24T14:12:47;2.85;;;1.30;;
69083;SDS011;56185;48.526;9.044;2023-04-24T14:15:12;2.67;;;1.30;;
69083;SDS011;56185;48.526;9.044;2023-04-24T14:17:37;2.13;;;1.40;;
69083;SDS011;56185;48.526;9.044;2023-04-24T14:20:03;2.40;;;1.40;;
69083;SDS011;56185;48.526;9.044;2023-04-24T14:22:29;2.35;;;1.27;;
69083;SDS011;56185;48.526;9.044;2023-04-24T14:24:54;2.70;;;1.50;;
69083;SDS011;56185;48.526;9.044;2023-04-24T14:27:20;1.70;;;1.27;;
69083;SDS011;56185;48.526;9.044;2023-04-24T14:29:45;2.28;;;1.50;;
69083;SDS011;56185;48.526;9.044;2023-04-24T14:32:10;1.87;;;1.30;;
69083;SDS011;56185;48.526;9.044;2023-04-24T14:34:36;1.80;;;1.25;;
69083;SDS011;56185;48.526;9.044;2023-04-24T14:37:01;1.57;;;1.37;;
69083;SDS011;56185;48.526;9.044;2023-04-24T14:39:29;1.83;;;1.38;;
69083;SDS011;56185;48.526;9.044;2023-04-24T14:41:54;1.90;;;1.33;;
69083;SDS011;56185;48.526;9.044;2023-04-24T14:44:19;1.73;;;1.20;;
69083;SDS011;56185;48.526;9.044;2023-04-24T14:46:44;2.83;;;1.63;;
69083;SDS011;56185;48.526;9.044;2023-04-24T14:49:10;2.37;;;1.30;;
69083;SDS011;56185;48.526;9.044;2023-04-24T14:51:38;2.08;;;1.30;;
69083;SDS011;56185;48.526;9.044;2023-04-24T14:54:03;3.17;;;1.60;;